Monte Toledo — CQRA — position and weather

sailwx.info

Track history (hours):
 
Tides and Currents Weather Stations Pressure Air Temp Water Temp Dewpoint Dewpoint Depression Visibility Wind Speed Wind Dir Waves Ship Positions

Monte Toledo

Last reported at 2014-Oct-13 06:07 UTC. Time now 2014-Oct-23 04:37 UTC.
Position N 35°57' E 015°19'.
Warning: this ship's position is 9 days out of date.

Length 274 m; draft 9 m.

Type: Tanker. MMSI: 255740000.

Date/timePositionNaut miles runAvg speedWind from/ knotsBaromVisibWave heightAir tempDewpointWater temp
2014-Oct-13 06:07N 35°57' E 015°19'713.0
2014-Oct-13 05:33N 35°60' E 015°11'1312.9
2014-Oct-13 04:33N 36°05' E 014°56'1313.0
2014-Oct-13 03:33N 36°09' E 014°41'1313.0
2014-Oct-13 02:33N 36°14' E 014°26'1313.0
2014-Oct-13 01:33N 36°19' E 014°11'1312.8
2014-Oct-13 00:30N 36°24' E 013°56'1212.5
2014-Oct-12 23:33N 36°28' E 013°42'1212.3
2014-Oct-12 22:33N 36°33' E 013°28'1212.3
2014-Oct-12 21:33N 36°38' E 013°14'1212.4
2014-Oct-12 20:33N 36°41' E 012°59'1312.5
2014-Oct-12 19:33N 36°47' E 012°45'1212.4
2014-Oct-12 18:33N 36°53' E 012°31'1313.0
2014-Oct-12 17:33N 36°56' E 012°15'1313.0
2014-Oct-12 16:32N 37°02' E 012°00'1613.4
2014-Oct-12 15:19N 37°09' E 011°42'3612.5
2014-Oct-12 12:28N 37°25' E 011°02'1112.1
2014-Oct-12 11:33N 37°30' E 010°49'1412.4
2014-Oct-12 10:27N 37°36' E 010°34'1212.9
2014-Oct-12 09:33N 37°42' E 010°21'1813.2
2014-Oct-12 08:11N 37°50' E 010°01'913.5
2014-Oct-12 07:33N 37°51' E 009°50'1313.5
2014-Oct-12 06:33N 37°51' E 009°33'1313.2
2014-Oct-12 05:33N 37°52' E 009°16'1313.2
2014-Oct-12 04:33N 37°51' E 008°60'1313.0
2014-Oct-12 03:33N 37°51' E 008°43'1312.8
2014-Oct-12 02:33N 37°49' E 008°27'1413.0
2014-Oct-12 01:26N 37°47' E 008°09'6713.1
2014-Oct-11 20:20N 37°37' E 006°45'1413.3
2014-Oct-11 19:19N 37°35' E 006°28'1012.9
2014-Oct-11 18:33N 37°34' E 006°16'1312.7
2014-Oct-11 17:31N 37°32' E 005°60'1612.5
2014-Oct-11 16:15N 37°30' E 005°40'2112.2
2014-Oct-11 14:33N 37°27' E 005°14'3812.7
2014-Oct-11 11:32N 37°21' E 004°27'1713.0
2014-Oct-11 10:15N 37°18' E 004°06'913.4
2014-Oct-11 09:33N 37°17' E 003°54'1413.4
2014-Oct-11 08:32N 37°15' E 003°37'1913.4
2014-Oct-11 07:07N 37°12' E 003°14'913.6
2014-Oct-11 06:28N 37°11' E 003°03'1314.0
2014-Oct-11 05:33N 37°09' E 002°47'1413.7
2014-Oct-11 04:32N 37°06' E 002°30'1313.2
2014-Oct-11 03:33N 37°04' E 002°14'1313.0
2014-Oct-11 02:33N 37°01' E 001°58'1313.1
2014-Oct-11 01:33N 36°58' E 001°42'1413.4
2014-Oct-11 00:32N 36°55' E 001°25'9412.6
2014-Oct-10 17:05N 36°35' W 000°30'713.4
2014-Oct-10 16:33N 36°33' W 000°38'1613.1
2014-Oct-10 15:21N 36°31' W 000°58'3913.5
2014-Oct-10 12:28N 36°22' W 001°45'1413.4
2014-Oct-10 11:25N 36°19' W 002°02'157 3.5
2014-Oct-08 14:33N 36°04' W 005°16'18511.2
2014-Oct-07 22:05N 36°26' W 001°29'712.0
2014-Oct-07 21:28N 36°27' W 001°20'1211.9
2014-Oct-07 20:28N 36°31' W 001°05'1211.9
2014-Oct-07 19:27N 36°34' W 000°51'4012.0
2014-Oct-07 16:05N 36°40' W 000°01'612.2
2014-Oct-07 15:33N 36°41' E 000°07'8911.1
2014-Oct-07 07:33N 37°00' E 001°55'3210.8
2014-Oct-07 04:34N 37°07' E 002°35'1110.8
2014-Oct-07 03:33N 37°09' E 002°48'5611.0
2014-Oct-06 22:28N 37°18' E 003°57'  
Track history (hours):
 
Tides and Currents Weather Stations Pressure Air Temp Water Temp Dewpoint Dewpoint Depression Visibility Wind Speed Wind Dir Waves Ship Positions

Monte Toledo

Last reported at 2014-Oct-13 06:07 UTC. Time now 2014-Oct-23 04:37 UTC.
Position N 35°57' E 015°19'.
Warning: this ship's position is 9 days out of date.

Length 274 m; draft 9 m.

Type: Tanker. MMSI: 255740000.

Date/timePositionNaut miles runAvg speedWind from/ knotsBaromVisibWave heightAir tempDewpointWater temp
2014-Oct-13 06:07N 35°57' E 015°19'713.0
2014-Oct-13 05:33N 35°60' E 015°11'1312.9
2014-Oct-13 04:33N 36°05' E 014°56'1313.0
2014-Oct-13 03:33N 36°09' E 014°41'1313.0
2014-Oct-13 02:33N 36°14' E 014°26'1313.0
2014-Oct-13 01:33N 36°19' E 014°11'1312.8
2014-Oct-13 00:30N 36°24' E 013°56'1212.5
2014-Oct-12 23:33N 36°28' E 013°42'1212.3
2014-Oct-12 22:33N 36°33' E 013°28'1212.3
2014-Oct-12 21:33N 36°38' E 013°14'1212.4
2014-Oct-12 20:33N 36°41' E 012°59'1312.5
2014-Oct-12 19:33N 36°47' E 012°45'1212.4
2014-Oct-12 18:33N 36°53' E 012°31'1313.0
2014-Oct-12 17:33N 36°56' E 012°15'1313.0
2014-Oct-12 16:32N 37°02' E 012°00'1613.4
2014-Oct-12 15:19N 37°09' E 011°42'3612.5
2014-Oct-12 12:28N 37°25' E 011°02'1112.1
2014-Oct-12 11:33N 37°30' E 010°49'1412.4
2014-Oct-12 10:27N 37°36' E 010°34'1212.9
2014-Oct-12 09:33N 37°42' E 010°21'1813.2
2014-Oct-12 08:11N 37°50' E 010°01'913.5
2014-Oct-12 07:33N 37°51' E 009°50'1313.5
2014-Oct-12 06:33N 37°51' E 009°33'1313.2
2014-Oct-12 05:33N 37°52' E 009°16'1313.2
2014-Oct-12 04:33N 37°51' E 008°60'1313.0
2014-Oct-12 03:33N 37°51' E 008°43'1312.8
2014-Oct-12 02:33N 37°49' E 008°27'1413.0
2014-Oct-12 01:26N 37°47' E 008°09'6713.1
2014-Oct-11 20:20N 37°37' E 006°45'1413.3
2014-Oct-11 19:19N 37°35' E 006°28'1012.9
2014-Oct-11 18:33N 37°34' E 006°16'1312.7
2014-Oct-11 17:31N 37°32' E 005°60'1612.5
2014-Oct-11 16:15N 37°30' E 005°40'2112.2
2014-Oct-11 14:33N 37°27' E 005°14'3812.7
2014-Oct-11 11:32N 37°21' E 004°27'1713.0
2014-Oct-11 10:15N 37°18' E 004°06'913.4
2014-Oct-11 09:33N 37°17' E 003°54'1413.4
2014-Oct-11 08:32N 37°15' E 003°37'1913.4
2014-Oct-11 07:07N 37°12' E 003°14'913.6
2014-Oct-11 06:28N 37°11' E 003°03'1314.0
2014-Oct-11 05:33N 37°09' E 002°47'1413.7
2014-Oct-11 04:32N 37°06' E 002°30'1313.2
2014-Oct-11 03:33N 37°04' E 002°14'1313.0
2014-Oct-11 02:33N 37°01' E 001°58'1313.1
2014-Oct-11 01:33N 36°58' E 001°42'1413.4
2014-Oct-11 00:32N 36°55' E 001°25'9412.6
2014-Oct-10 17:05N 36°35' W 000°30'713.4
2014-Oct-10 16:33N 36°33' W 000°38'1613.1
2014-Oct-10 15:21N 36°31' W 000°58'3913.5
2014-Oct-10 12:28N 36°22' W 001°45'1413.4
2014-Oct-10 11:25N 36°19' W 002°02'157 3.5
2014-Oct-08 14:33N 36°04' W 005°16'18511.2
2014-Oct-07 22:05N 36°26' W 001°29'712.0
2014-Oct-07 21:28N 36°27' W 001°20'1211.9
2014-Oct-07 20:28N 36°31' W 001°05'1211.9
2014-Oct-07 19:27N 36°34' W 000°51'4012.0
2014-Oct-07 16:05N 36°40' W 000°01'612.2
2014-Oct-07 15:33N 36°41' E 000°07'8911.1
2014-Oct-07 07:33N 37°00' E 001°55'3210.8
2014-Oct-07 04:34N 37°07' E 002°35'1110.8
2014-Oct-07 03:33N 37°09' E 002°48'5611.0
2014-Oct-06 22:28N 37°18' E 003°57'  

Dump ship's entire track history